Southeast Iowa Regional Airport
KBRL : now visible

Airfield :











YOU CAN JOIN US ON...

 
LOGIN :

Register | Disclaimer

   EN    FR    IT 

 









Legend :    VFR   Marginal VFR   IFR   Intensive IFR   Very Intensive IFR
Visi :
Ceiling :
>= 8 km
>= 3000ft
5 to 8 km
1000 to 3000 ft
1500m to 5 km
500 to 1000 ft
800 to 1500m
200 to 500 ft
< 800m
< 200 ft
Symbols :   Thunderstorms  Fog  Heavy snow  Heavy precipitations  Wind > 20 kt






- Airport Elevation : 698 ft
- IATA code : BRL


KBRL - Southeast Iowa Regional

CURRENT METAR :
  • 082053Z AUTO 29003KT 7SM FEW003 02/M10 A3001 RMK AO2 SLP170 T00221100 56008

EXPIRED METARs :
  • 081953Z AUTO VRB04KT 10SM CLR 02/M09 A3002 RMK AO2 SLP173 T00171094
  • 081853Z AUTO 26004KT 10SM CLR 01/M09 A3003 RMK AO2 SLP175 T00111089

TAF KBRL
Valid from the 08 at 18:00 until the 09 at 18:00 UTC


081737Z 0818/0918 33007KT P6SM SKC
FM090200 13007KT P6SM SCT250
FM090800 13011KT P6SM OVC200 WS015/18040KT
FM091300 15012G20KT P6SM BKN150
KZAU FIR / North America



MET'MAP, your aeronautical weather chart ! - Copyright ORBIFLY December 2007 - Disclaimer

ORBIFLY MET'MAP TEAM :

Programming & Development : Alexandra Zaïnal
Concept & original design : Baudouin d'Aumeries
Assistance for programming : Marc-Olivier Méhu
Technical & hardware support : Manuel Goepfert

Contact : metmap@orbifly.com




SOURCES & CREDITS :

   NOAA       Earth
Advisory